Time;durP1;ratioP1;P1;durP2;ratioP2;P2;SDS_P1;SDS_P2;PMS_P1;PMS_P2;Temp;Humidity;BMP_temperature;BMP_pressure;BME280_temperature;BME280_humidity;BME280_pressure;Samples;Min_cycle;Max_cycle;Signal;HPM_P1;HPM_P2
2022/04/08 00:01:03;;;;;;;5.00;1.50;;;12.90;45.60;;;;;;5068907;28;20235;-43
2022/04/08 00:03:28;;;;;;;7.17;1.80;;;13.10;45.80;;;;;;5069201;28;20192;-43
2022/04/08 00:05:54;;;;;;;2.90;1.17;;;13.20;45.60;;;;;;5065713;28;20258;-44
2022/04/08 00:08:21;;;;;;;3.47;1.00;;;13.20;45.70;;;;;;5066774;28;20195;-44
2022/04/08 00:10:47;;;;;;;3.33;1.10;;;13.40;45.60;;;;;;5068748;28;20199;-43
2022/04/08 00:13:13;;;;;;;3.50;1.10;;;13.40;45.50;;;;;;5069153;28;20442;-44
2022/04/08 00:15:39;;;;;;;4.27;1.20;;;13.20;45.60;;;;;;5064231;28;20192;-43
2022/04/08 00:18:06;;;;;;;7.33;1.50;;;13.00;45.70;;;;;;5066367;28;20863;-43
2022/04/08 00:20:32;;;;;;;1.83;1.00;;;13.00;46.10;;;;;;5064403;28;20227;-44
2022/04/08 00:22:58;;;;;;;4.00;1.37;;;13.20;46.20;;;;;;5068419;28;20454;-43
2022/04/08 00:25:24;;;;;;;3.00;1.43;;;13.30;46.20;;;;;;5068727;28;20449;-43
2022/04/08 00:27:50;;;;;;;5.00;1.73;;;13.10;46.00;;;;;;5069861;28;20446;-43
2022/04/08 00:30:16;;;;;;;11.63;1.57;;;13.00;46.00;;;;;;5067534;28;20583;-44
2022/04/08 00:32:41;;;;;;;8.70;1.17;;;13.10;46.40;;;;;;5067553;28;20221;-44
2022/04/08 00:35:08;;;;;;;2.80;1.23;;;13.00;45.90;;;;;;5067334;28;20191;-43
2022/04/08 00:37:35;;;;;;;2.70;1.50;;;12.90;46.00;;;;;;5066650;28;20234;-43
2022/04/08 00:40:00;;;;;;;7.67;1.60;;;13.00;46.40;;;;;;5063383;28;20477;-44
2022/04/08 00:42:26;;;;;;;4.77;1.13;;;13.10;46.00;;;;;;5061311;28;20446;-44
2022/04/08 00:44:52;;;;;;;3.30;1.60;;;13.20;46.10;;;;;;5066061;28;20442;-44
2022/04/08 00:47:17;;;;;;;3.00;1.00;;;13.00;46.00;;;;;;5068360;28;20191;-45
2022/04/08 00:49:43;;;;;;;2.67;1.37;;;12.90;45.90;;;;;;5061847;28;20254;-43
2022/04/08 00:52:10;;;;;;;2.60;1.30;;;12.90;46.00;;;;;;5066548;28;20282;-43
2022/04/08 00:54:37;;;;;;;4.10;1.40;;;13.00;45.70;;;;;;5066969;28;20557;-43
2022/04/08 00:57:03;;;;;;;3.10;1.20;;;13.00;45.30;;;;;;5063725;28;20438;-44
2022/04/08 00:59:29;;;;;;;5.90;1.27;;;12.90;45.50;;;;;;5062109;28;20438;-43
2022/04/08 01:01:58;;;;;;;4.47;1.30;;;12.90;45.70;;;;;;5063533;28;20936;-45
2022/04/08 01:04:24;;;;;;;5.00;1.90;;;12.60;45.90;;;;;;5056446;28;20476;-43
2022/04/08 01:06:49;;;;;;;4.63;1.90;;;12.90;46.20;;;;;;5064499;28;20533;-43
2022/04/08 01:09:16;;;;;;;2.53;1.50;;;13.00;46.00;;;;;;5065338;28;20572;-43
2022/04/08 01:11:42;;;;;;;4.87;1.50;;;13.00;45.80;;;;;;5061618;28;20625;-44
2022/04/08 01:14:13;;;;;;;7.70;1.90;;;13.10;46.00;;;;;;5063609;28;20495;-43
2022/04/08 01:16:39;;;;;;;5.63;1.50;;;13.30;45.80;;;;;;5067521;28;20979;-46
2022/04/08 01:19:05;;;;;;;4.87;1.23;;;13.10;45.20;;;;;;5066709;28;20466;-45
2022/04/08 01:21:32;;;;;;;4.40;1.23;;;13.20;45.50;;;;;;5065053;28;20509;-43
2022/04/08 01:23:58;;;;;;;3.30;1.40;;;13.20;45.30;;;;;;5068686;28;20783;-43
2022/04/08 01:26:25;;;;;;;2.50;1.40;;;12.90;45.40;;;;;;5064951;28;21011;-44
2022/04/08 01:28:55;;;;;;;6.37;1.50;;;12.60;46.10;;;;;;5065237;28;20448;-46
2022/04/08 01:31:23;;;;;;;5.90;1.43;;;12.80;46.30;;;;;;5066035;28;20450;-46
2022/04/08 01:33:52;;;;;;;3.33;1.17;;;12.90;46.10;;;;;;5067889;28;20442;-43
2022/04/08 01:36:18;;;;;;;6.60;1.63;;;12.90;46.40;;;;;;5067211;28;20533;-43
2022/04/08 01:38:44;;;;;;;5.50;1.93;;;12.90;46.30;;;;;;5062599;28;20476;-44
2022/04/08 01:41:10;;;;;;;5.50;1.60;;;12.80;46.10;;;;;;5065998;28;20925;-43
2022/04/08 01:43:35;;;;;;;5.77;1.30;;;12.90;46.40;;;;;;5060528;28;20776;-43
2022/04/08 01:46:01;;;;;;;4.23;1.53;;;12.50;45.70;;;;;;5062645;28;20279;-43
2022/04/08 01:48:27;;;;;;;1.97;1.13;;;12.40;46.00;;;;;;5066587;28;20191;-43
2022/04/08 01:50:53;;;;;;;3.73;1.27;;;12.60;46.60;;;;;;5068255;28;20632;-43
2022/04/08 01:53:18;;;;;;;3.27;2.50;;;12.60;46.00;;;;;;5063871;28;20504;-43
2022/04/08 01:55:44;;;;;;;2.93;1.13;;;12.60;45.80;;;;;;5069745;28;20222;-43
2022/04/08 01:58:10;;;;;;;4.00;1.33;;;12.50;45.80;;;;;;5066883;28;20203;-45
2022/04/08 02:00:37;;;;;;;5.37;1.60;;;12.40;46.40;;;;;;5064306;28;20493;-45
2022/04/08 02:03:02;;;;;;;3.73;1.47;;;12.50;46.30;;;;;;5067085;28;20445;-43
2022/04/08 02:05:28;;;;;;;4.30;1.10;;;12.60;46.10;;;;;;5067101;28;20446;-44
2022/04/08 02:07:54;;;;;;;3.73;1.60;;;12.80;46.10;;;;;;5064657;28;20192;-45
2022/04/08 02:10:20;;;;;;;3.13;1.30;;;12.90;46.30;;;;;;5065243;28;20227;-44
2022/04/08 02:12:46;;;;;;;4.20;1.60;;;12.80;46.40;;;;;;5069010;28;20426;-43
2022/04/08 02:15:12;;;;;;;4.53;1.23;;;13.00;46.70;;;;;;5066079;28;20452;-45
2022/04/08 02:17:38;;;;;;;2.63;1.10;;;13.10;46.50;;;;;;5060424;28;20197;-44
2022/04/08 02:20:04;;;;;;;3.13;1.20;;;13.20;46.50;;;;;;5064912;28;20262;-44
2022/04/08 02:22:31;;;;;;;6.73;1.87;;;13.20;46.40;;;;;;5068461;28;20230;-43
2022/04/08 02:24:57;;;;;;;6.57;2.00;;;13.40;46.30;;;;;;5066177;28;20544;-43
2022/04/08 02:27:23;;;;;;;4.90;1.30;;;13.60;46.00;;;;;;5065572;28;20449;-44
2022/04/08 02:29:50;;;;;;;4.23;1.20;;;13.80;45.80;;;;;;5065230;28;20442;-43
2022/04/08 02:32:15;;;;;;;8.17;1.50;;;13.80;45.40;;;;;;5062073;28;20933;-43
2022/04/08 02:34:41;;;;;;;4.00;1.40;;;13.70;45.40;;;;;;5064149;28;20449;-46
2022/04/08 02:37:07;;;;;;;8.20;1.97;;;13.80;45.60;;;;;;5061090;28;20591;-43
2022/04/08 02:39:33;;;;;;;5.10;1.60;;;14.00;45.20;;;;;;5063947;28;20219;-45
2022/04/08 02:41:59;;;;;;;4.53;1.33;;;14.10;45.00;;;;;;5066240;28;20207;-43
2022/04/08 02:44:25;;;;;;;4.90;1.43;;;14.10;44.50;;;;;;5067826;28;20503;-45
2022/04/08 02:46:50;;;;;;;4.10;1.37;;;14.00;44.80;;;;;;5065314;28;20447;-43
2022/04/08 02:49:16;;;;;;;8.53;1.40;;;13.60;44.80;;;;;;5070330;28;20218;-45
2022/04/08 02:51:42;;;;;;;2.80;1.00;;;13.30;45.30;;;;;;5070612;28;20189;-44
2022/04/08 02:54:07;;;;;;;6.80;1.43;;;13.20;45.60;;;;;;5071077;28;20250;-43
2022/04/08 02:56:33;;;;;;;3.27;1.10;;;13.30;45.80;;;;;;5067501;28;20192;-45
2022/04/08 02:59:00;;;;;;;5.97;1.43;;;13.10;45.00;;;;;;5069350;28;20222;-43
2022/04/08 03:01:27;;;;;;;2.83;1.40;;;12.80;45.20;;;;;;5066230;28;20234;-43
2022/04/08 03:03:52;;;;;;;2.60;1.30;;;12.70;45.30;;;;;;5068002;28;20434;-43
2022/04/08 03:06:18;;;;;;;4.00;1.20;;;12.60;45.40;;;;;;5069119;28;20525;-43
2022/04/08 03:08:44;;;;;;;5.47;2.23;;;12.60;45.40;;;;;;5070521;28;20198;-44
2022/04/08 03:11:09;;;;;;;4.90;1.20;;;12.30;45.60;;;;;;5070909;28;20446;-43
2022/04/08 03:13:35;;;;;;;3.90;1.23;;;12.30;46.20;;;;;;5068086;28;20199;-43
2022/04/08 03:16:02;;;;;;;3.97;1.53;;;12.30;46.70;;;;;;5068801;28;20240;-44
2022/04/08 03:18:27;;;;;;;3.50;1.43;;;12.40;46.50;;;;;;5069830;28;20618;-43
2022/04/08 03:20:53;;;;;;;2.93;1.30;;;12.60;46.10;;;;;;5068210;28;20498;-44
2022/04/08 03:23:19;;;;;;;2.20;0.90;;;12.90;45.90;;;;;;5069985;28;20188;-45
2022/04/08 03:25:44;;;;;;;4.47;1.20;;;13.10;45.60;;;;;;5060935;28;20664;-43
2022/04/08 03:28:10;;;;;;;4.67;1.40;;;13.10;45.60;;;;;;5065628;28;20202;-43
2022/04/08 03:30:36;;;;;;;3.97;2.20;;;13.00;45.80;;;;;;5067327;28;20655;-45
2022/04/08 03:33:01;;;;;;;3.03;1.20;;;13.10;45.80;;;;;;5063342;28;20196;-45
2022/04/08 03:35:27;;;;;;;4.97;1.50;;;13.10;45.60;;;;;;5069633;28;20275;-45
2022/04/08 03:37:52;;;;;;;3.50;1.30;;;13.20;45.70;;;;;;5067867;28;20221;-44
2022/04/08 03:40:18;;;;;;;4.30;1.40;;;13.40;45.60;;;;;;5063100;28;20255;-43
2022/04/08 03:42:43;;;;;;;3.83;1.10;;;13.70;45.50;;;;;;5064009;28;20192;-44
2022/04/08 03:45:09;;;;;;;4.20;1.37;;;13.80;45.10;;;;;;5069425;28;20192;-43
2022/04/08 03:47:35;;;;;;;4.67;1.47;;;13.70;45.10;;;;;;5069466;28;20199;-43
2022/04/08 03:50:01;;;;;;;6.57;1.30;;;13.70;45.20;;;;;;5063359;28;20242;-44
2022/04/08 03:52:32;;;;;;;4.03;1.30;;;13.70;45.20;;;;;;5065354;28;20690;-45
2022/04/08 03:54:59;;;;;;;5.37;1.10;;;13.50;45.30;;;;;;5063822;28;20223;-43
2022/04/08 03:57:25;;;;;;;5.07;1.97;;;13.20;45.40;;;;;;5064657;28;20478;-43
2022/04/08 03:59:51;;;;;;;7.90;1.53;;;13.00;45.80;;;;;;5064518;28;20741;-43
2022/04/08 04:02:17;;;;;;;4.77;1.37;;;12.90;45.70;;;;;;5069244;28;21065;-44
2022/04/08 04:04:42;;;;;;;4.80;1.27;;;12.70;45.30;;;;;;5064705;28;20578;-43
2022/04/08 04:07:08;;;;;;;3.03;1.53;;;12.80;45.70;;;;;;5069011;28;20659;-45
2022/04/08 04:09:34;;;;;;;5.63;1.70;;;12.70;45.50;;;;;;5068060;28;20195;-43
2022/04/08 04:11:59;;;;;;;4.40;1.37;;;12.80;45.30;;;;;;5068751;28;20188;-45
2022/04/08 04:14:25;;;;;;;7.03;1.60;;;12.70;45.30;;;;;;5066860;28;20196;-43
2022/04/08 04:16:50;;;;;;;4.13;1.13;;;12.50;44.60;;;;;;5067711;28;20242;-43
2022/04/08 04:19:17;;;;;;;6.30;1.70;;;12.60;45.00;;;;;;5066793;28;20238;-44
2022/04/08 04:21:43;;;;;;;5.73;1.40;;;12.60;44.70;;;;;;5066678;28;20568;-44
2022/04/08 04:24:09;;;;;;;3.03;1.30;;;12.60;44.70;;;;;;5066948;28;21237;-45
2022/04/08 04:26:34;;;;;;;9.17;1.53;;;12.70;44.50;;;;;;5062625;28;20538;-43
2022/04/08 04:29:00;;;;;;;4.07;1.60;;;12.50;43.80;;;;;;5066305;28;20265;-45
2022/04/08 04:31:26;;;;;;;8.13;1.80;;;12.20;44.10;;;;;;5064336;28;20837;-43
2022/04/08 04:33:52;;;;;;;1.87;1.10;;;12.10;44.20;;;;;;5063289;28;20490;-43
2022/04/08 04:36:17;;;;;;;4.50;1.67;;;12.10;44.50;;;;;;5067391;28;20274;-43
2022/04/08 04:38:43;;;;;;;6.20;1.20;;;12.10;44.40;;;;;;5067613;28;20188;-43
2022/04/08 04:41:09;;;;;;;3.57;1.30;;;12.30;44.60;;;;;;5063325;28;20303;-44
2022/04/08 04:43:35;;;;;;;5.17;1.53;;;12.30;44.50;;;;;;5066636;28;20227;-44
2022/04/08 04:46:03;;;;;;;8.07;1.43;;;12.30;44.70;;;;;;5055772;28;20445;-43
2022/04/08 04:48:29;;;;;;;4.50;1.50;;;12.40;44.70;;;;;;5067375;28;20446;-43
2022/04/08 04:50:56;;;;;;;7.07;1.70;;;12.40;44.60;;;;;;5068032;28;20441;-43
2022/04/08 04:53:22;;;;;;;4.70;1.27;;;12.60;44.60;;;;;;5068229;28;20707;-43
2022/04/08 04:55:48;;;;;;;8.80;1.43;;;12.80;44.50;;;;;;5069745;28;20457;-43
2022/04/08 04:58:14;;;;;;;8.50;1.50;;;12.80;44.30;;;;;;5064925;28;20462;-43
2022/04/08 05:00:39;;;;;;;2.87;1.40;;;12.60;44.60;;;;;;5068332;28;20263;-45
2022/04/08 05:03:06;;;;;;;6.53;2.13;;;12.50;45.00;;;;;;5069851;28;20266;-43
2022/04/08 05:05:32;;;;;;;8.27;2.63;;;12.50;45.10;;;;;;5067580;28;20241;-44
2022/04/08 05:08:02;;;;;;;5.87;1.57;;;12.40;45.50;;;;;;5067570;28;20799;-43
2022/04/08 05:10:27;;;;;;;5.90;1.80;;;12.50;45.80;;;;;;5061288;28;20446;-43
2022/04/08 05:12:53;;;;;;;3.83;1.30;;;12.80;45.50;;;;;;5061772;28;20445;-43
2022/04/08 05:15:18;;;;;;;8.23;1.50;;;13.00;45.10;;;;;;5062414;28;20207;-46
2022/04/08 05:17:45;;;;;;;4.23;1.73;;;13.20;44.80;;;;;;5067473;28;20188;-44
2022/04/08 05:20:10;;;;;;;4.67;2.00;;;13.40;44.50;;;;;;5065423;28;21993;-44
2022/04/08 05:22:38;;;;;;;6.33;2.17;;;13.60;44.80;;;;;;5065577;28;20445;-45
2022/04/08 05:25:04;;;;;;;6.30;1.50;;;13.70;44.90;;;;;;5067238;28;20635;-43
2022/04/08 05:27:43;;;;;;;5.97;1.30;;;13.80;44.60;;;;;;5068651;28;20941;-43
2022/04/08 05:30:12;;;;;;;2.60;1.77;;;13.90;44.40;;;;;;5067515;28;20427;-43
2022/04/08 05:32:38;;;;;;;5.50;1.80;;;13.90;44.40;;;;;;5067560;28;20450;-44
2022/04/08 05:35:04;;;;;;;3.70;1.50;;;14.10;44.30;;;;;;5066994;28;20491;-45
2022/04/08 05:37:30;;;;;;;3.40;1.40;;;14.10;44.30;;;;;;5064694;28;20537;-44
2022/04/08 05:39:56;;;;;;;11.67;1.73;;;14.20;44.30;;;;;;5069624;28;21105;-44
2022/04/08 05:42:22;;;;;;;5.17;1.30;;;14.20;44.50;;;;;;5063502;28;20196;-46
2022/04/08 05:44:48;;;;;;;7.13;1.80;;;14.10;44.50;;;;;;5068394;28;20430;-43
2022/04/08 05:47:13;;;;;;;8.50;1.97;;;14.20;44.60;;;;;;5068512;28;20441;-44
2022/04/08 05:49:39;;;;;;;7.80;1.47;;;14.30;44.60;;;;;;5067493;28;20667;-44
2022/04/08 05:52:05;;;;;;;5.60;1.70;;;14.50;44.80;;;;;;5065961;28;20294;-43
2022/04/08 05:54:31;;;;;;;8.33;2.10;;;14.60;44.30;;;;;;5060028;28;20277;-43
2022/04/08 05:57:01;;;;;;;7.83;1.50;;;14.70;44.30;;;;;;5065659;28;20188;-44
2022/04/08 05:59:29;;;;;;;3.93;1.73;;;14.80;44.00;;;;;;5055444;28;20454;-43
2022/04/08 06:01:55;;;;;;;6.60;1.70;;;14.80;43.70;;;;;;5064090;28;20438;-43
2022/04/08 06:04:21;;;;;;;7.80;1.43;;;14.90;43.70;;;;;;5064431;28;20701;-43
2022/04/08 06:06:47;;;;;;;4.90;1.53;;;14.90;43.50;;;;;;5067522;28;20196;-43
2022/04/08 06:09:13;;;;;;;4.40;1.40;;;15.00;43.80;;;;;;5066395;28;20448;-45
2022/04/08 06:11:38;;;;;;;6.53;1.70;;;14.90;43.90;;;;;;5063170;28;20191;-44
2022/04/08 06:14:04;;;;;;;5.90;1.80;;;14.90;44.20;;;;;;5068481;28;20188;-44
2022/04/08 06:16:30;;;;;;;3.40;1.57;;;14.90;44.50;;;;;;5061047;28;20273;-45
2022/04/08 06:18:58;;;;;;;9.20;2.30;;;14.90;44.70;;;;;;5067762;28;20228;-43
2022/04/08 06:21:23;;;;;;;3.63;2.00;;;14.90;45.10;;;;;;5072016;28;20224;-47
2022/04/08 06:23:50;;;;;;;7.20;2.50;;;14.90;45.30;;;;;;5072587;28;20961;-44
2022/04/08 06:26:15;;;;;;;3.60;1.03;;;14.30;45.60;;;;;;5068881;28;20218;-43
2022/04/08 06:28:41;;;;;;;2.63;1.10;;;13.50;45.80;;;;;;5070306;28;20529;-43
2022/04/08 06:31:10;;;;;;;4.00;1.47;;;13.20;46.40;;;;;;5069428;28;20298;-45
2022/04/08 06:33:37;;;;;;;4.57;1.03;;;13.10;47.80;;;;;;5068334;28;20442;-45
2022/04/08 06:36:03;;;;;;;4.47;1.23;;;13.10;48.30;;;;;;5070400;28;20860;-42
2022/04/08 06:38:28;;;;;;;6.63;1.17;;;13.20;48.00;;;;;;5073199;28;20430;-42
2022/04/08 06:40:54;;;;;;;5.80;1.10;;;13.00;48.00;;;;;;5069265;28;20302;-41
2022/04/08 06:43:19;;;;;;;3.13;1.23;;;12.70;48.60;;;;;;5072321;28;20226;-43
2022/04/08 06:45:45;;;;;;;3.43;1.13;;;13.00;48.90;;;;;;5068813;28;20230;-43
2022/04/08 06:48:11;;;;;;;3.67;1.27;;;13.30;48.40;;;;;;5071319;28;20188;-43
2022/04/08 06:50:36;;;;;;;5.77;1.10;;;13.40;48.40;;;;;;5070220;28;20192;-43
2022/04/08 06:53:03;;;;;;;4.90;1.80;;;13.30;48.50;;;;;;5069277;28;20606;-41
2022/04/08 06:55:31;;;;;;;4.73;1.60;;;13.50;49.10;;;;;;5065709;28;20199;-41
2022/04/08 06:57:59;;;;;;;6.70;1.53;;;13.50;48.80;;;;;;5066728;28;20474;-43
2022/04/08 07:00:24;;;;;;;2.83;1.10;;;13.40;49.40;;;;;;5070364;28;20477;-42
2022/04/08 07:02:50;;;;;;;3.90;1.37;;;13.30;49.30;;;;;;5071191;28;20441;-44
2022/04/08 07:05:16;;;;;;;2.43;1.10;;;13.30;49.60;;;;;;5071106;28;20785;-42
2022/04/08 07:07:45;;;;;;;3.70;2.10;;;13.40;49.80;;;;;;5066710;28;20192;-43
2022/04/08 07:10:11;;;;;;;1.27;1.17;;;13.20;50.10;;;;;;5069382;28;20242;-43
2022/04/08 07:12:37;;;;;;;4.17;1.30;;;12.70;50.20;;;;;;5070434;28;20430;-42
2022/04/08 07:15:04;;;;;;;3.57;1.27;;;12.80;51.40;;;;;;5066041;28;20442;-43
2022/04/08 07:17:31;;;;;;;4.70;1.40;;;12.90;51.60;;;;;;5070213;28;20250;-42
2022/04/08 07:19:58;;;;;;;2.40;1.40;;;12.90;52.40;;;;;;5070617;28;20486;-42
2022/04/08 07:22:24;;;;;;;4.70;1.33;;;12.60;53.10;;;;;;5070955;28;20435;-44
2022/04/08 07:24:51;;;;;;;5.10;2.43;;;12.70;54.10;;;;;;5077159;28;20534;-43
2022/04/08 07:27:18;;;;;;;2.70;1.00;;;12.80;54.50;;;;;;5067890;28;20456;-47
2022/04/08 07:29:44;;;;;;;4.37;1.90;;;12.80;54.20;;;;;;5067150;28;20434;-44
2022/04/08 07:32:09;;;;;;;12.00;2.17;;;12.90;54.60;;;;;;5070012;28;20450;-43
2022/04/08 07:34:36;;;;;;;2.70;1.70;;;13.20;54.40;;;;;;5068826;28;20196;-46
2022/04/08 07:37:05;;;;;;;4.13;1.83;;;13.20;54.70;;;;;;5071316;28;20718;-44
2022/04/08 07:39:31;;;;;;;3.27;1.90;;;12.90;55.80;;;;;;5058881;28;20524;-42
2022/04/08 07:41:57;;;;;;;3.40;1.50;;;13.00;55.90;;;;;;5073487;28;20456;-44
2022/04/08 07:44:23;;;;;;;3.00;1.33;;;12.70;55.80;;;;;;5069114;28;20426;-42
2022/04/08 07:46:48;;;;;;;2.50;1.00;;;12.50;56.00;;;;;;5070624;28;20509;-42
2022/04/08 07:49:14;;;;;;;5.33;1.90;;;12.40;56.80;;;;;;5062813;28;20275;-43
2022/04/08 07:51:41;;;;;;;3.00;1.30;;;12.20;57.30;;;;;;5067339;28;20647;-41
2022/04/08 07:54:07;;;;;;;2.43;1.07;;;12.20;57.40;;;;;;5064943;28;20206;-42
2022/04/08 07:56:35;;;;;;;2.70;1.00;;;12.40;57.20;;;;;;5064289;28;20429;-42
2022/04/08 07:59:01;;;;;;;3.87;1.27;;;12.40;56.90;;;;;;5067153;28;20454;-41
2022/04/08 08:01:27;;;;;;;3.37;0.87;;;12.50;56.70;;;;;;5063111;28;20504;-42
2022/04/08 08:03:53;;;;;;;2.97;1.57;;;12.60;56.50;;;;;;5066067;28;20442;-42
2022/04/08 08:06:18;;;;;;;1.37;1.17;;;12.60;56.30;;;;;;5058993;28;20199;-42
2022/04/08 08:08:44;;;;;;;1.70;0.73;;;12.60;56.90;;;;;;5061084;28;20435;-43
2022/04/08 08:11:12;;;;;;;1.40;0.90;;;12.50;57.10;;;;;;5060388;28;20193;-43
2022/04/08 08:13:38;;;;;;;2.40;1.17;;;12.40;56.90;;;;;;5064179;28;20247;-42
2022/04/08 08:16:06;;;;;;;1.53;1.10;;;12.60;57.30;;;;;;5070001;28;20449;-41
2022/04/08 08:18:31;;;;;;;4.20;1.50;;;12.70;57.40;;;;;;5066692;28;20467;-41
2022/04/08 08:20:57;;;;;;;2.60;1.30;;;13.00;57.20;;;;;;5067713;28;20501;-41
2022/04/08 08:23:22;;;;;;;2.13;0.97;;;13.10;56.80;;;;;;5069837;28;20200;-43
2022/04/08 08:25:48;;;;;;;2.03;0.90;;;13.20;56.70;;;;;;5064140;28;20666;-44
2022/04/08 08:28:14;;;;;;;2.53;1.53;;;13.30;56.80;;;;;;5070527;28;20196;-44
2022/04/08 08:30:39;;;;;;;2.30;1.13;;;13.50;56.60;;;;;;5070407;28;20184;-44
2022/04/08 08:33:06;;;;;;;1.07;0.70;;;13.60;56.50;;;;;;5069954;28;20925;-42
2022/04/08 08:35:32;;;;;;;2.73;1.07;;;13.80;56.80;;;;;;5068735;28;20231;-41
2022/04/08 08:37:58;;;;;;;2.03;1.10;;;13.80;56.30;;;;;;5067517;28;20438;-41
2022/04/08 08:40:24;;;;;;;2.00;1.00;;;13.90;56.20;;;;;;5065059;28;20494;-42
2022/04/08 08:42:50;;;;;;;2.00;0.93;;;13.90;56.10;;;;;;5066619;28;20549;-41
2022/04/08 08:45:17;;;;;;;2.40;1.00;;;14.00;56.20;;;;;;5068979;28;20254;-42
2022/04/08 08:47:47;;;;;;;2.10;1.20;;;14.10;56.00;;;;;;5070011;28;20192;-41
2022/04/08 08:50:12;;;;;;;2.00;0.90;;;14.10;55.70;;;;;;5065823;28;20469;-43
2022/04/08 08:52:39;;;;;;;4.40;1.10;;;13.90;55.90;;;;;;5068579;28;20493;-42
2022/04/08 08:55:06;;;;;;;0.93;0.80;;;13.80;56.10;;;;;;5068962;28;20192;-41
2022/04/08 08:57:32;;;;;;;1.93;1.10;;;13.80;56.80;;;;;;5069011;28;20422;-41
2022/04/08 09:00:12;;;;;;;3.93;0.97;;;13.80;56.50;;;;;;5067836;28;20478;-42
2022/04/08 09:02:37;;;;;;;1.47;0.90;;;14.00;56.60;;;;;;5061349;28;21016;-42
2022/04/08 09:05:30;;;;;;;1.17;0.77;;;13.90;56.50;;;;;;5064510;28;20476;-43
2022/04/08 09:07:59;;;;;;;1.43;1.00;;;14.10;56.80;;;;;;5066348;28;20215;-42
2022/04/08 09:10:36;;;;;;;4.13;1.17;;;14.00;56.80;;;;;;5062353;28;20438;-44
2022/04/08 09:13:04;;;;;;;2.40;0.93;;;14.20;56.70;;;;;;5070435;28;20440;-42
2022/04/08 09:15:31;;;;;;;1.17;0.73;;;14.20;56.90;;;;;;5068402;28;20513;-43
2022/04/08 09:18:14;;;;;;;1.00;0.80;;;14.10;56.10;;;;;;5066641;28;20493;-42
2022/04/08 09:20:44;;;;;;;1.73;1.20;;;14.20;55.80;;;;;;5068379;28;20482;-42
2022/04/08 09:23:12;;;;;;;2.40;1.30;;;13.90;55.50;;;;;;5066909;28;20438;-43
2022/04/08 09:25:39;;;;;;;1.63;0.60;;;13.50;57.60;;;;;;5067382;28;20488;-42
2022/04/08 09:28:13;;;;;;;1.10;0.90;;;13.50;57.60;;;;;;5064821;28;20438;-43
2022/04/08 09:30:40;;;;;;;2.63;1.13;;;13.70;57.60;;;;;;5062113;28;20471;-42
2022/04/08 09:33:17;;;;;;;1.90;1.10;;;13.80;57.80;;;;;;5063012;28;20426;-43
2022/04/08 09:35:43;;;;;;;1.30;1.03;;;13.80;58.10;;;;;;5061461;28;20495;-42
2022/04/08 09:38:08;;;;;;;3.57;0.80;;;14.00;57.80;;;;;;5064971;28;20825;-43
2022/04/08 09:40:39;;;;;;;1.50;0.83;;;14.10;57.70;;;;;;5063422;28;20482;-45
2022/04/08 09:43:05;;;;;;;2.07;1.13;;;14.20;56.80;;;;;;5070871;28;20441;-42
2022/04/08 09:45:31;;;;;;;1.93;0.90;;;14.40;57.00;;;;;;5057014;28;20462;-47
2022/04/08 09:48:01;;;;;;;1.27;1.00;;;14.50;57.10;;;;;;5069116;28;20430;-44
2022/04/08 09:50:27;;;;;;;1.33;0.93;;;14.40;57.10;;;;;;5067132;28;20442;-48
2022/04/08 09:52:53;;;;;;;1.80;1.20;;;14.30;57.00;;;;;;5071258;28;20430;-44
2022/04/08 09:55:21;;;;;;;1.90;1.00;;;14.40;56.50;;;;;;5070219;28;20560;-46
2022/04/08 09:57:49;;;;;;;2.03;1.30;;;14.40;56.70;;;;;;5068742;28;20439;-45
2022/04/08 10:00:16;;;;;;;1.77;0.90;;;14.30;56.80;;;;;;5067131;28;20494;-46
2022/04/08 10:02:47;;;;;;;1.10;1.00;;;14.30;56.80;;;;;;5064012;28;20950;-43
2022/04/08 10:05:13;;;;;;;3.33;1.03;;;14.40;56.90;;;;;;5067252;28;21002;-44
2022/04/08 10:07:40;;;;;;;1.00;0.90;;;14.50;56.40;;;;;;5067889;28;20434;-47
2022/04/08 10:10:21;;;;;;;2.03;0.90;;;14.50;56.40;;;;;;5072495;28;20967;-45
2022/04/08 10:12:53;;;;;;;2.47;0.90;;;14.60;56.30;;;;;;5068601;28;20446;-45
2022/04/08 10:15:41;;;;;;;3.13;1.53;;;14.60;56.40;;;;;;5071305;28;20452;-44
2022/04/08 10:18:08;;;;;;;1.53;1.43;;;14.70;56.50;;;;;;5072834;28;20437;-44
2022/04/08 10:20:35;;;;;;;1.30;1.20;;;14.70;56.50;;;;;;5069067;28;20478;-43
2022/04/08 10:23:11;;;;;;;1.43;1.27;;;14.80;56.40;;;;;;5066873;28;20430;-46
2022/04/08 10:25:42;;;;;;;2.67;1.40;;;14.90;56.70;;;;;;5062080;28;20494;-44
2022/04/08 10:28:09;;;;;;;3.00;2.13;;;15.00;57.00;;;;;;5065515;28;20438;-43
2022/04/08 10:30:43;;;;;;;2.70;2.33;;;15.10;57.10;;;;;;5070397;28;20820;-46
2022/04/08 10:33:09;;;;;;;2.10;1.87;;;15.20;56.40;;;;;;5061902;28;20468;-43
2022/04/08 10:35:37;;;;;;;1.87;1.70;;;15.30;56.40;;;;;;5064109;28;20441;-46
2022/04/08 10:38:08;;;;;;;1.03;1.00;;;15.30;56.50;;;;;;5068923;28;20491;-46
2022/04/08 10:40:46;;;;;;;2.43;1.10;;;15.30;55.60;;;;;;5070144;28;20510;-44
2022/04/08 10:43:14;;;;;;;1.27;0.90;;;15.30;55.20;;;;;;5071745;28;20782;-45
2022/04/08 10:45:51;;;;;;;1.37;0.80;;;15.20;55.20;;;;;;5071305;28;20477;-43
2022/04/08 10:48:18;;;;;;;2.10;0.93;;;15.20;55.40;;;;;;5072264;28;20524;-46
2022/04/08 10:50:44;;;;;;;1.30;0.80;;;15.20;55.70;;;;;;5070096;28;20869;-45
2022/04/08 10:53:14;;;;;;;1.10;0.70;;;15.10;55.30;;;;;;5072623;28;20512;-44
2022/04/08 10:56:07;;;;;;;0.63;0.63;;;15.10;55.60;;;;;;5071986;28;20206;-44
2022/04/08 10:58:44;;;;;;;0.70;0.70;;;15.10;55.50;;;;;;5068176;28;20524;-45
2022/04/08 11:01:22;;;;;;;2.87;1.10;;;15.10;55.80;;;;;;5071541;28;21098;-44
2022/04/08 11:04:00;;;;;;;2.07;1.00;;;15.10;56.10;;;;;;5070447;28;20469;-43
2022/04/08 11:06:31;;;;;;;1.40;1.30;;;15.10;56.30;;;;;;5070367;28;20442;-43
2022/04/08 11:09:08;;;;;;;2.40;0.80;;;15.10;55.80;;;;;;5072151;28;20467;-45
2022/04/08 11:11:38;;;;;;;1.63;1.20;;;15.10;55.90;;;;;;5072236;28;20525;-45
2022/04/08 11:14:05;;;;;;;0.97;0.77;;;15.10;56.10;;;;;;5065713;28;20466;-45
2022/04/08 11:16:33;;;;;;;6.57;6.07;;;15.10;56.10;;;;;;5071310;28;20996;-44
2022/04/08 11:18:59;;;;;;;1.73;1.40;;;15.00;55.40;;;;;;5072546;28;20470;-45
2022/04/08 11:21:28;;;;;;;3.90;3.70;;;15.00;55.50;;;;;;5071707;28;20482;-45
2022/04/08 11:24:20;;;;;;;2.93;2.70;;;14.80;55.00;;;;;;5071769;28;20430;-44
2022/04/08 11:26:50;;;;;;;3.80;3.20;;;14.70;55.90;;;;;;5067485;28;20794;-44
2022/04/08 11:29:17;;;;;;;1.33;1.03;;;14.70;56.30;;;;;;5067331;28;20460;-45
2022/04/08 11:31:48;;;;;;;3.30;1.20;;;14.60;56.80;;;;;;5070700;28;20525;-46
2022/04/08 11:34:15;;;;;;;1.50;1.40;;;14.10;57.20;;;;;;5071305;28;20436;-44
2022/04/08 11:36:42;;;;;;;3.60;3.33;;;13.90;58.00;;;;;;5071845;28;20479;-44
2022/04/08 11:39:09;;;;;;;3.00;2.10;;;13.90;58.60;;;;;;5069571;28;20488;-44
2022/04/08 11:41:35;;;;;;;1.23;1.23;;;13.90;58.90;;;;;;5068987;28;20489;-44
2022/04/08 11:44:03;;;;;;;4.37;3.97;;;14.00;58.60;;;;;;5061565;28;20854;-43
2022/04/08 11:46:29;;;;;;;3.47;3.27;;;14.00;58.10;;;;;;5075572;28;20524;-44
2022/04/08 11:48:55;;;;;;;3.53;3.23;;;14.00;58.40;;;;;;5068111;28;20781;-45
2022/04/08 11:51:21;;;;;;;5.07;4.57;;;14.10;59.10;;;;;;5072015;28;20502;-44
2022/04/08 11:53:53;;;;;;;3.07;2.87;;;14.10;59.00;;;;;;5066104;28;20200;-47
2022/04/08 11:56:24;;;;;;;1.40;1.30;;;14.10;59.30;;;;;;5066401;28;20437;-43
2022/04/08 11:59:01;;;;;;;2.43;2.23;;;13.80;58.70;;;;;;5059809;28;20792;-46
2022/04/08 12:01:32;;;;;;;2.40;2.20;;;13.90;59.40;;;;;;5064852;28;20546;-44
2022/04/08 12:04:03;;;;;;;1.50;1.40;;;13.90;60.00;;;;;;5058083;28;20469;-46
2022/04/08 12:06:45;;;;;;;1.53;1.43;;;13.90;59.20;;;;;;5066048;28;20570;-45
2022/04/08 12:09:12;;;;;;;1.57;1.43;;;13.60;58.90;;;;;;5068936;28;20453;-44
2022/04/08 12:11:43;;;;;;;2.00;1.43;;;13.50;60.00;;;;;;5068244;28;20489;-44
2022/04/08 12:14:10;;;;;;;1.13;1.03;;;13.70;60.40;;;;;;5061176;28;20466;-45
2022/04/08 12:16:37;;;;;;;1.73;1.13;;;13.80;59.90;;;;;;5066686;28;20856;-43
2022/04/08 12:19:03;;;;;;;1.33;0.70;;;13.60;58.90;;;;;;5069190;28;20591;-44
2022/04/08 12:21:30;;;;;;;3.13;1.93;;;13.40;58.80;;;;;;5067993;28;20507;-44
2022/04/08 12:23:58;;;;;;;1.70;0.97;;;13.50;59.40;;;;;;5068343;28;20434;-44
2022/04/08 12:26:31;;;;;;;1.60;1.50;;;13.60;59.70;;;;;;5069799;28;20460;-43
2022/04/08 12:29:27;;;;;;;2.90;2.70;;;13.70;59.70;;;;;;5067471;28;20431;-45
2022/04/08 12:31:59;;;;;;;1.87;1.70;;;13.80;59.30;;;;;;5062005;28;20445;-43
2022/04/08 12:34:25;;;;;;;1.20;1.10;;;13.90;59.30;;;;;;5069152;28;20764;-43
2022/04/08 12:36:51;;;;;;;1.53;1.40;;;13.90;59.00;;;;;;5067459;28;20434;-44
2022/04/08 12:39:17;;;;;;;2.60;1.13;;;13.90;59.20;;;;;;5067357;28;20614;-44
2022/04/08 12:41:47;;;;;;;0.80;0.80;;;13.40;58.90;;;;;;5067863;28;20220;-43
2022/04/08 12:44:13;;;;;;;2.10;0.87;;;13.40;60.10;;;;;;5068411;28;20568;-47
2022/04/08 12:46:39;;;;;;;1.63;1.10;;;13.40;60.40;;;;;;5064110;28;20427;-43